Royse City's Hourly Summary for Monday, July 9, 2018
Hour Temp
(f)
RH
(%)
Solar Rad.
(MJ/m2)
Rainfall
(in)
Wind
(mph)
7/9/2018 12:00 AM 78 70 0 0 0
7/9/2018 1:00 AM 77 76 0 0 0
7/9/2018 2:00 AM 76 79 0 0 0
7/9/2018 3:00 AM 74 85 0 0 0
7/9/2018 4:00 AM 75 86 0 0 0
7/9/2018 5:00 AM 74 86 0 0 0
7/9/2018 6:00 AM 73 95 0 0 0
7/9/2018 7:00 AM 73 99 0.02 0 0
7/9/2018 8:00 AM 75 86 0.42 0 0
7/9/2018 9:00 AM 80 70 1.07 0 0
7/9/2018 10:00 AM 83 62 1.97 0 0
7/9/2018 11:00 AM 84 61 1.32 0 0
7/9/2018 12:00 PM 83 60 1.44 0 0
7/9/2018 1:00 PM 87 49 2.41 0 0
7/9/2018 2:00 PM 81 67 0.8 0.14 0
7/9/2018 3:00 PM 83 59 2.47 0 0
7/9/2018 4:00 PM 86 58 2.38 0 0
7/9/2018 5:00 PM 87 55 2.02 0 0
7/9/2018 6:00 PM 87 54 1.42 0 0
7/9/2018 7:00 PM 81 54 0.27 0 0.08
7/9/2018 8:00 PM 76 83 0.12 0.03 0
7/9/2018 9:00 PM 75 94 0.03 0 0
7/9/2018 10:00 PM 75 98 0 0 0
7/9/2018 11:00 PM 74 99 0 0.01 0
Data Summary 79 74 18.16 0.18 0.00